עמוד ראשי
METAR-TAF:

METAR-TAF

שדות תעופה :

Ålesund, נורבגיה

קו רוחב: 62-34N, קו אורך: 006-07E, גובה: 2מטר

תצפית מזג אוויר נוכחית

הדו"ח נערך לפני 26דקות, בשעה 15:20 UTC
רוח 2קשר מכיוון דרום/דרום-מזרח
טמפרטורת 5 צלסיוס
לחות 70%
לחץ 1008 hPa
ראות 10 קילומטר או יותר
מעט עננים בגובה 1300רגל , קומולוס מיגדלי.
עננים פזורים בגובה 2400רגל

METAR: ENAL 241520Z 15002KT 9999 FEW013TCU SCT024 05/M00 Q1008

זמן: 17:46 (15:46 UTC)

תחזית

הדו"ח נערך לפני 1 שעות ו 46דקות, בשעה 14:00 UTC
תחזית בתוקף מ 24 ב 15 UTC עד 24 ב 22 UTC
רוח 5קשר עם כיוונים משתנים
ראות 10 קילומטר או יותר
מעט עננים בגובה 1500רגל , קומולוס מיגדלי.
עננים בינוניים בגובה 3000רגל
הסתברות 40% :
זמנית מ -
24 ב 15 UTC עד 24 ב 18 UTC
ראות: 4000מטר
עננים בינוניים בגובה 900רגל
עננים פזורים בגובה 2000רגל , קומולונימבוס.
ממטרי גשם, שלג
יעשה מ
24 ב 17 UTC עד 24 ב 19 UTC
רוח 10קשר מכיוון צפון-מזרח

TAF: ENAL 241400Z 2415/2422 VRB05KT 9999 FEW015TCU BKN030 PROB40 TEMPO 2415/2418 4000 SHRASN BKN009 SCT020CB BECMG 2417/2419 04010KT

תצפיות ותחזיות מזג אוויר לגבי יותר מ- 4,000 שדות תעופה ברחבי העולם. דוחות METAR ו- TAF.

התחנות הזמינות מסומנות בנקודות צהובות ואדומות על גבי המפה.

העבר את העכבר לנקודה הצבעונית על מנת לראות את שם התחנה.

לאחר מכן, לחץ כדי לראות את תוכן ואת תחזיות מזג האוויר.

כדי לשנות את המפה: לחץ על הכפתורים הירוקים עם הפלוס השחור כדי להתקרב; על הכפתור הירוק עם המקף כדי להתרחק; או בחיצים הירוקים למפות סמוכות.


METAR-TAF: